Guilford, Maine
Current Conditions -  °F | °C
As of 10:12 AM on Monday 24 Nov 2014 (Local Time) from KBGR Reporting Station
Light Rain Light Rain  
Wind Chill: 53°   Ceiling: 1000
Heat Index: 53°   Visibility: 4mi
Dew Point: 51°   Wind: 18mph
Humidity: 93%   Direction: 150°SSE
Pressure: 29.82"   Gusts: 25mph
Location:  45.17°N, 69.39°W
Report Text: KBGR 241512Z 15016G22KT 4SM -RA BR OVC010 12/11 A2982 RMK AO2 CIG 006V013 P0002 T01170106
Loading
Personal Weather Stations






























Interactive Weather Map New forecast layout! Learn more

10-Day Weather Forecast

Advertisements
Track Severe Weather on mobile